createdAt,value
2022-12-19T00:00:53.407Z,-8.10
2022-12-19T00:06:19.146Z,-8.09
2022-12-19T00:11:43.159Z,-8.08
2022-12-19T00:17:06.083Z,-8.08
2022-12-19T00:22:28.772Z,-8.10
2022-12-19T00:27:52.662Z,-8.16
2022-12-19T00:33:14.882Z,-8.15
2022-12-19T00:38:37.107Z,-8.20
2022-12-19T00:44:00.005Z,-8.22
2022-12-19T00:49:23.118Z,-8.25
2022-12-19T00:54:45.457Z,-8.30
2022-12-19T01:00:07.893Z,-8.42
2022-12-19T01:05:30.740Z,-8.50
2022-12-19T01:10:55.758Z,-8.49
2022-12-19T01:16:26.350Z,-8.49
2022-12-19T01:21:48.802Z,-8.53
2022-12-19T01:27:12.048Z,-8.60
2022-12-19T01:32:35.970Z,-8.65
2022-12-19T01:38:08.628Z,-8.67
2022-12-19T01:43:24.132Z,-8.70
2022-12-19T01:48:50.254Z,-8.68
2022-12-19T01:54:20.377Z,-8.67
2022-12-19T01:59:46.263Z,-8.65
2022-12-19T02:05:08.527Z,-8.67
2022-12-19T02:10:31.427Z,-8.71
2022-12-19T02:16:25.175Z,-8.78
2022-12-19T02:22:08.545Z,-8.79
2022-12-19T02:28:12.074Z,-8.84
2022-12-19T02:33:47.622Z,-8.86
2022-12-19T02:39:17.412Z,-8.95
2022-12-19T02:50:20.097Z,-8.85
2022-12-19T02:55:46.853Z,-9.02
2022-12-19T03:01:23.130Z,-9.11
2022-12-19T03:07:02.529Z,-9.14
2022-12-19T03:12:29.820Z,-9.14
2022-12-19T03:17:58.998Z,-9.24
2022-12-19T03:23:31.625Z,-9.13
2022-12-19T03:29:01.977Z,-9.28
2022-12-19T03:34:35.136Z,-9.30
2022-12-19T03:40:01.913Z,-9.38
2022-12-19T03:45:31.595Z,-9.38
2022-12-19T03:50:59.712Z,-9.42
2022-12-19T03:56:48.340Z,-9.48
2022-12-19T04:02:14.553Z,-9.53
2022-12-19T04:07:37.831Z,-9.58
2022-12-19T04:13:19.417Z,-9.55
2022-12-19T04:18:44.089Z,-9.54
2022-12-19T04:24:17.211Z,-9.60
2022-12-19T04:29:44.142Z,-9.57
2022-12-19T04:35:06.344Z,-9.60
2022-12-19T04:40:29.297Z,-9.64
2022-12-19T04:45:57.266Z,-9.60
2022-12-19T04:51:17.426Z,-9.64
2022-12-19T04:56:40.308Z,-9.67
2022-12-19T05:02:02.636Z,-9.62
2022-12-19T05:07:26.706Z,-9.64
2022-12-19T05:12:48.986Z,-9.62
2022-12-19T05:18:11.362Z,-9.58
2022-12-19T05:23:34.816Z,-9.63
2022-12-19T05:28:57.152Z,-9.56
2022-12-19T05:34:19.426Z,-9.62
2022-12-19T05:39:41.939Z,-9.60
2022-12-19T05:45:04.186Z,-9.59
2022-12-19T05:50:27.551Z,-9.61
2022-12-19T05:55:49.810Z,-9.58
2022-12-19T06:01:20.835Z,-9.54
2022-12-19T06:06:44.337Z,-9.49
2022-12-19T06:12:06.682Z,-9.48
2022-12-19T06:17:28.989Z,-9.49
2022-12-19T06:22:51.364Z,-9.49
2022-12-19T06:28:13.567Z,-9.52
2022-12-19T06:33:37.178Z,-9.52
2022-12-19T06:39:00.336Z,-9.52
2022-12-19T06:44:24.734Z,-9.51
2022-12-19T06:49:47.115Z,-9.43
2022-12-19T06:55:09.314Z,-9.39
2022-12-19T07:00:33.128Z,-9.30
2022-12-19T07:05:56.685Z,-9.25
2022-12-19T07:11:19.057Z,-9.21
2022-12-19T07:16:43.052Z,-9.25
2022-12-19T07:22:05.811Z,-9.25
2022-12-19T07:27:35.249Z,-9.25
2022-12-19T07:32:53.049Z,-9.19
2022-12-19T07:38:18.207Z,-9.13
2022-12-19T07:43:41.150Z,-9.06
2022-12-19T07:49:03.366Z,-9.00
2022-12-19T07:54:25.629Z,-8.89
2022-12-19T07:59:48.035Z,-8.84
2022-12-19T08:05:11.686Z,-8.76
2022-12-19T08:10:34.562Z,-8.68
2022-12-19T08:15:56.972Z,-8.61
2022-12-19T08:21:20.609Z,-8.52
2022-12-19T08:26:47.606Z,-8.44
2022-12-19T08:32:08.295Z,-8.32
2022-12-19T08:37:31.324Z,-8.16
2022-12-19T08:42:54.473Z,-7.95
2022-12-19T08:48:18.673Z,-7.79
2022-12-19T08:53:44.095Z,-7.64
2022-12-19T08:59:06.848Z,-7.46
2022-12-19T09:05:57.906Z,-7.27
2022-12-19T09:09:53.685Z,-7.04
2022-12-19T09:15:16.555Z,-6.83
2022-12-19T09:20:39.160Z,-6.70
2022-12-19T09:26:02.140Z,-6.48
2022-12-19T09:31:29.221Z,-6.26
2022-12-19T09:36:51.557Z,-6.07
2022-12-19T09:42:49.396Z,-5.90
2022-12-19T09:48:23.645Z,-5.73
2022-12-19T09:54:05.564Z,-5.56
2022-12-19T10:00:05.321Z,-5.46
2022-12-19T10:06:54.415Z,-5.37
2022-12-19T10:12:42.885Z,-5.24
2022-12-19T10:17:32.275Z,-5.07
2022-12-19T10:23:17.836Z,-4.86
2022-12-19T10:28:48.022Z,-4.34
2022-12-19T10:34:33.670Z,-3.49
2022-12-19T10:40:17.604Z,-3.15
2022-12-19T10:45:46.880Z,-3.31
2022-12-19T10:51:09.190Z,-2.66
2022-12-19T10:56:38.356Z,-2.51
2022-12-19T11:02:03.118Z,-3.11
2022-12-19T11:07:33.717Z,-2.40
2022-12-19T11:16:53.677Z,-2.70
2022-12-19T11:26:42.560Z,-2.54
2022-12-19T11:29:19.779Z,-2.36
2022-12-19T11:35:36.789Z,-2.45
2022-12-19T11:41:01.871Z,-2.62
2022-12-19T11:46:38.092Z,-2.37
2022-12-19T11:57:54.124Z,-2.81
2022-12-19T12:03:39.804Z,-3.18
2022-12-19T12:11:32.294Z,-3.18
2022-12-19T12:31:01.480Z,-3.04
2022-12-19T12:31:50.631Z,-2.81
2022-12-19T12:31:55.328Z,-2.82
2022-12-19T12:35:30.605Z,-2.92
2022-12-19T12:38:27.808Z,-3.07
2022-12-19T12:44:08.488Z,-3.08
2022-12-19T12:49:54.914Z,-3.10
2022-12-19T12:55:20.507Z,-3.06
2022-12-19T13:00:48.375Z,-3.00
2022-12-19T13:06:33.591Z,-3.02
2022-12-19T13:12:26.735Z,-3.02
2022-12-19T13:17:56.855Z,-2.97
2022-12-19T13:23:45.325Z,-3.05
2022-12-19T13:29:09.307Z,-3.05
2022-12-19T13:34:42.374Z,-3.05
2022-12-19T13:40:12.961Z,-3.02
2022-12-19T13:45:47.383Z,-2.99
2022-12-19T13:51:13.844Z,-3.03
2022-12-19T13:56:37.411Z,-3.00
2022-12-19T14:02:01.299Z,-2.99
2022-12-19T14:07:47.780Z,-3.00
2022-12-19T14:13:56.535Z,-3.05
2022-12-19T14:19:01.734Z,-3.12
2022-12-19T14:24:33.016Z,-3.17
2022-12-19T14:30:27.974Z,-3.14
2022-12-19T14:36:08.488Z,-3.10
2022-12-19T14:41:08.377Z,-3.07
2022-12-19T14:52:35.818Z,-3.02
2022-12-19T14:54:40.198Z,-3.00
2022-12-19T14:58:50.840Z,-2.99
2022-12-19T15:02:54.768Z,-2.96
2022-12-19T15:08:19.638Z,-2.91
2022-12-19T15:14:55.121Z,-2.89
2022-12-19T15:19:14.594Z,-2.89
2022-12-19T15:24:37.212Z,-2.86
2022-12-19T15:29:59.876Z,-2.85
2022-12-19T15:35:25.997Z,-2.80
2022-12-19T15:40:48.531Z,-2.78
2022-12-19T15:46:15.841Z,-2.77
2022-12-19T15:51:38.595Z,-2.74
2022-12-19T15:57:03.970Z,-2.70
2022-12-19T16:03:21.102Z,-2.67
2022-12-19T16:08:00.199Z,-2.65
2022-12-19T16:13:28.001Z,-2.65
2022-12-19T16:18:50.283Z,-2.61
2022-12-19T16:24:12.698Z,-2.57
2022-12-19T16:29:41.972Z,-2.55
2022-12-19T16:35:05.710Z,-2.51
2022-12-19T16:40:31.963Z,-2.50
2022-12-19T16:46:00.761Z,-2.46
2022-12-19T16:51:36.023Z,-2.31
2022-12-19T16:57:03.478Z,-2.39
2022-12-19T17:02:49.540Z,-2.37
2022-12-19T17:08:18.100Z,-2.34
2022-12-19T17:13:40.715Z,-2.28
2022-12-19T17:19:05.254Z,-2.25
2022-12-19T17:24:29.706Z,-2.21
2022-12-19T17:29:51.998Z,-2.14
2022-12-19T17:35:16.173Z,-2.09
2022-12-19T17:40:44.337Z,-2.05
2022-12-19T17:46:06.892Z,-2.03
2022-12-19T17:51:31.518Z,-1.98
2022-12-19T17:56:53.874Z,-1.98
2022-12-19T18:02:18.444Z,-1.99
2022-12-19T18:07:41.249Z,-2.04
2022-12-19T18:13:05.954Z,-2.02
2022-12-19T18:18:38.187Z,-2.02
2022-12-19T18:24:01.630Z,-1.96
2022-12-19T18:29:24.758Z,-1.86
2022-12-19T18:34:49.067Z,-1.86
2022-12-19T18:40:20.072Z,-1.80
2022-12-19T18:45:41.602Z,-1.80
2022-12-19T18:51:04.794Z,-1.76
2022-12-19T18:56:27.539Z,-1.78
2022-12-19T19:01:52.659Z,-1.77
2022-12-19T19:07:16.568Z,-1.73
2022-12-19T19:12:39.058Z,-1.67
2022-12-19T19:18:07.147Z,-1.58
2022-12-19T19:23:31.408Z,-1.56
2022-12-19T19:28:54.316Z,-1.50
2022-12-19T19:34:29.867Z,-1.47
2022-12-19T19:39:53.181Z,-1.40
2022-12-19T19:45:16.048Z,-1.34
2022-12-19T19:50:38.391Z,-1.30
2022-12-19T19:56:10.137Z,-1.25
2022-12-19T20:01:33.297Z,-1.20
2022-12-19T20:06:57.767Z,-1.18
2022-12-19T20:12:20.453Z,-1.14
2022-12-19T20:17:44.003Z,-1.12
2022-12-19T20:23:06.327Z,-1.10
2022-12-19T20:28:28.900Z,-1.07
2022-12-19T20:33:52.803Z,-1.04
2022-12-19T20:39:15.944Z,-1.02
2022-12-19T20:44:39.393Z,-1.01
2022-12-19T20:50:02.212Z,-0.98
2022-12-19T20:55:25.771Z,-0.96
2022-12-19T21:00:48.968Z,-0.93
2022-12-19T21:06:13.668Z,-0.92
2022-12-19T21:11:37.646Z,-0.91
2022-12-19T21:16:59.983Z,-0.88
2022-12-19T21:22:22.213Z,-0.83
2022-12-19T21:27:45.037Z,-0.81
2022-12-19T21:33:09.162Z,-0.80
2022-12-19T21:38:32.042Z,-0.77
2022-12-19T21:43:55.328Z,-0.74
2022-12-19T21:49:19.106Z,-0.67
2022-12-19T21:54:41.310Z,-0.62
2022-12-19T22:00:04.116Z,-0.59
2022-12-19T22:05:26.599Z,-0.55
2022-12-19T22:10:50.991Z,-0.53
2022-12-19T22:16:13.948Z,-0.47
2022-12-19T22:21:37.364Z,-0.40
2022-12-19T22:26:59.817Z,-0.34
2022-12-19T22:32:22.567Z,-0.27
2022-12-19T22:37:44.975Z,-0.25
2022-12-19T22:43:07.426Z,-0.21
2022-12-19T22:48:29.704Z,-0.18
2022-12-19T22:53:53.156Z,-0.14
2022-12-19T22:59:19.097Z,-0.13
2022-12-19T23:04:42.118Z,-0.06
2022-12-19T23:10:04.472Z,-0.04
2022-12-19T23:15:26.930Z,-0.01
2022-12-19T23:20:49.157Z,0.01
2022-12-19T23:26:16.043Z,0.04
2022-12-19T23:31:37.076Z,0.07
2022-12-19T23:37:10.631Z,0.09
2022-12-19T23:42:24.554Z,0.10
2022-12-19T23:47:48.105Z,0.12
2022-12-19T23:53:10.380Z,0.15
2022-12-19T23:58:33.341Z,0.20
